sensor_id;sensor_type;location;lat;lon;timestamp;temperature;humidity
20915;DHT22;10617;52.032;5.298;2022-10-16T00:01:35;14.10;99.90
20915;DHT22;10617;52.032;5.298;2022-10-16T00:05:40;14.00;99.90
20915;DHT22;10617;52.032;5.298;2022-10-16T00:09:42;14.00;99.90
20915;DHT22;10617;52.032;5.298;2022-10-16T00:13:45;14.00;99.90
20915;DHT22;10617;52.032;5.298;2022-10-16T00:17:46;13.90;99.90
20915;DHT22;10617;52.032;5.298;2022-10-16T00:21:48;13.90;99.90
20915;DHT22;10617;52.032;5.298;2022-10-16T00:25:56;13.90;99.90
20915;DHT22;10617;52.032;5.298;2022-10-16T00:29:58;13.90;99.90
20915;DHT22;10617;52.032;5.298;2022-10-16T00:34:00;13.90;99.90
20915;DHT22;10617;52.032;5.298;2022-10-16T00:38:02;13.90;99.90
20915;DHT22;10617;52.032;5.298;2022-10-16T00:42:04;13.90;99.90
20915;DHT22;10617;52.032;5.298;2022-10-16T00:46:10;13.90;99.90
20915;DHT22;10617;52.032;5.298;2022-10-16T00:50:22;13.80;99.90
20915;DHT22;10617;52.032;5.298;2022-10-16T00:54:29;13.80;99.90
20915;DHT22;10617;52.032;5.298;2022-10-16T00:58:31;13.90;99.90
20915;DHT22;10617;52.032;5.298;2022-10-16T01:02:33;13.90;99.90
20915;DHT22;10617;52.032;5.298;2022-10-16T01:10:57;13.80;99.90
20915;DHT22;10617;52.032;5.298;2022-10-16T01:27:51;14.00;99.90
20915;DHT22;10617;52.032;5.298;2022-10-16T01:31:54;14.00;99.90
20915;DHT22;10617;52.032;5.298;2022-10-16T01:35:59;14.10;99.90
20915;DHT22;10617;52.032;5.298;2022-10-16T01:40:05;14.00;99.90
20915;DHT22;10617;52.032;5.298;2022-10-16T01:48:12;14.10;99.90
20915;DHT22;10617;52.032;5.298;2022-10-16T01:52:16;14.10;99.90
20915;DHT22;10617;52.032;5.298;2022-10-16T01:56:19;14.10;99.90
20915;DHT22;10617;52.032;5.298;2022-10-16T02:00:23;14.10;99.90
20915;DHT22;10617;52.032;5.298;2022-10-16T02:04:32;14.10;99.90
20915;DHT22;10617;52.032;5.298;2022-10-16T02:08:34;14.10;99.90
20915;DHT22;10617;52.032;5.298;2022-10-16T02:12:36;14.10;99.90
20915;DHT22;10617;52.032;5.298;2022-10-16T02:16:42;14.10;99.90
20915;DHT22;10617;52.032;5.298;2022-10-16T02:28:54;14.00;99.90
20915;DHT22;10617;52.032;5.298;2022-10-16T02:32:58;14.00;99.90
20915;DHT22;10617;52.032;5.298;2022-10-16T02:37:01;14.00;99.90
20915;DHT22;10617;52.032;5.298;2022-10-16T02:41:05;14.00;99.90
20915;DHT22;10617;52.032;5.298;2022-10-16T02:45:08;14.00;99.90
20915;DHT22;10617;52.032;5.298;2022-10-16T02:49:10;14.00;99.90
20915;DHT22;10617;52.032;5.298;2022-10-16T02:53:11;14.00;99.90
20915;DHT22;10617;52.032;5.298;2022-10-16T02:57:13;13.90;99.90
20915;DHT22;10617;52.032;5.298;2022-10-16T03:01:15;13.90;99.90
20915;DHT22;10617;52.032;5.298;2022-10-16T03:05:18;13.80;99.90
20915;DHT22;10617;52.032;5.298;2022-10-16T03:09:19;13.80;99.90
20915;DHT22;10617;52.032;5.298;2022-10-16T03:13:21;13.80;99.90
20915;DHT22;10617;52.032;5.298;2022-10-16T03:17:23;13.90;99.90
20915;DHT22;10617;52.032;5.298;2022-10-16T03:21:25;13.80;99.90
20915;DHT22;10617;52.032;5.298;2022-10-16T03:25:27;13.90;99.90
20915;DHT22;10617;52.032;5.298;2022-10-16T03:29:28;13.90;99.90
20915;DHT22;10617;52.032;5.298;2022-10-16T03:33:30;13.90;99.90
20915;DHT22;10617;52.032;5.298;2022-10-16T03:37:32;13.90;99.90
20915;DHT22;10617;52.032;5.298;2022-10-16T03:41:34;13.90;99.90
20915;DHT22;10617;52.032;5.298;2022-10-16T03:45:35;13.90;99.90
20915;DHT22;10617;52.032;5.298;2022-10-16T03:49:37;13.80;99.90
20915;DHT22;10617;52.032;5.298;2022-10-16T03:53:39;13.80;99.90
20915;DHT22;10617;52.032;5.298;2022-10-16T03:57:40;13.80;99.90
20915;DHT22;10617;52.032;5.298;2022-10-16T04:01:42;13.70;99.90
20915;DHT22;10617;52.032;5.298;2022-10-16T04:05:44;13.70;99.90
20915;DHT22;10617;52.032;5.298;2022-10-16T04:09:46;13.70;99.90
20915;DHT22;10617;52.032;5.298;2022-10-16T04:13:47;13.70;99.90
20915;DHT22;10617;52.032;5.298;2022-10-16T04:17:49;13.60;99.90
20915;DHT22;10617;52.032;5.298;2022-10-16T04:21:51;13.70;99.90
20915;DHT22;10617;52.032;5.298;2022-10-16T04:25:52;13.60;99.90
20915;DHT22;10617;52.032;5.298;2022-10-16T04:29:54;13.60;99.90
20915;DHT22;10617;52.032;5.298;2022-10-16T04:33:56;13.60;99.90
20915;DHT22;10617;52.032;5.298;2022-10-16T04:37:58;13.60;99.90
20915;DHT22;10617;52.032;5.298;2022-10-16T04:41:59;13.60;99.90
20915;DHT22;10617;52.032;5.298;2022-10-16T04:46:01;13.60;99.90
20915;DHT22;10617;52.032;5.298;2022-10-16T04:50:03;13.50;99.90
20915;DHT22;10617;52.032;5.298;2022-10-16T04:54:05;13.50;99.90
20915;DHT22;10617;52.032;5.298;2022-10-16T04:58:06;13.50;99.90
20915;DHT22;10617;52.032;5.298;2022-10-16T05:02:08;13.50;99.90
20915;DHT22;10617;52.032;5.298;2022-10-16T05:06:10;13.40;99.90
20915;DHT22;10617;52.032;5.298;2022-10-16T05:10:11;13.40;99.90
20915;DHT22;10617;52.032;5.298;2022-10-16T05:14:13;13.40;99.90
20915;DHT22;10617;52.032;5.298;2022-10-16T05:18:15;13.30;99.90
20915;DHT22;10617;52.032;5.298;2022-10-16T05:22:17;13.30;99.90
20915;DHT22;10617;52.032;5.298;2022-10-16T05:26:19;13.30;99.90
20915;DHT22;10617;52.032;5.298;2022-10-16T05:30:20;13.30;99.90
20915;DHT22;10617;52.032;5.298;2022-10-16T05:34:22;13.20;99.90
20915;DHT22;10617;52.032;5.298;2022-10-16T05:38:24;13.20;99.90
20915;DHT22;10617;52.032;5.298;2022-10-16T05:42:25;13.20;99.90
20915;DHT22;10617;52.032;5.298;2022-10-16T05:46:27;13.20;99.90
20915;DHT22;10617;52.032;5.298;2022-10-16T05:50:29;13.20;99.90
20915;DHT22;10617;52.032;5.298;2022-10-16T05:54:30;13.20;99.90
20915;DHT22;10617;52.032;5.298;2022-10-16T05:58:35;13.20;99.90
20915;DHT22;10617;52.032;5.298;2022-10-16T06:02:37;13.30;99.90
20915;DHT22;10617;52.032;5.298;2022-10-16T06:06:39;13.30;99.90
20915;DHT22;10617;52.032;5.298;2022-10-16T06:10:41;13.30;99.90
20915;DHT22;10617;52.032;5.298;2022-10-16T06:14:43;13.30;99.90
20915;DHT22;10617;52.032;5.298;2022-10-16T06:18:45;13.30;99.90
20915;DHT22;10617;52.032;5.298;2022-10-16T06:22:47;13.40;99.90
20915;DHT22;10617;52.032;5.298;2022-10-16T06:26:49;13.40;99.90
20915;DHT22;10617;52.032;5.298;2022-10-16T06:30:58;13.40;99.90
20915;DHT22;10617;52.032;5.298;2022-10-16T06:35:03;13.40;99.90
20915;DHT22;10617;52.032;5.298;2022-10-16T06:39:05;13.40;99.90
20915;DHT22;10617;52.032;5.298;2022-10-16T06:43:08;13.40;99.90
20915;DHT22;10617;52.032;5.298;2022-10-16T06:47:10;13.40;99.90
20915;DHT22;10617;52.032;5.298;2022-10-16T06:51:12;13.40;99.90
20915;DHT22;10617;52.032;5.298;2022-10-16T06:55:14;13.50;99.90
20915;DHT22;10617;52.032;5.298;2022-10-16T06:59:18;13.50;99.90
20915;DHT22;10617;52.032;5.298;2022-10-16T07:03:19;13.50;99.90
20915;DHT22;10617;52.032;5.298;2022-10-16T07:07:21;13.50;99.90
20915;DHT22;10617;52.032;5.298;2022-10-16T07:11:25;13.60;99.90
20915;DHT22;10617;52.032;5.298;2022-10-16T07:15:27;13.50;99.90
20915;DHT22;10617;52.032;5.298;2022-10-16T07:19:29;13.50;99.90
20915;DHT22;10617;52.032;5.298;2022-10-16T07:23:33;13.50;99.90
20915;DHT22;10617;52.032;5.298;2022-10-16T07:27:35;13.50;99.90
20915;DHT22;10617;52.032;5.298;2022-10-16T07:31:38;13.50;99.90
20915;DHT22;10617;52.032;5.298;2022-10-16T07:35:53;13.50;99.90
20915;DHT22;10617;52.032;5.298;2022-10-16T07:39:55;13.60;99.90
20915;DHT22;10617;52.032;5.298;2022-10-16T07:43:56;13.60;99.90
20915;DHT22;10617;52.032;5.298;2022-10-16T07:48:01;13.60;99.90
20915;DHT22;10617;52.032;5.298;2022-10-16T07:52:03;13.70;99.90
20915;DHT22;10617;52.032;5.298;2022-10-16T07:56:05;13.70;99.90
20915;DHT22;10617;52.032;5.298;2022-10-16T08:00:07;13.80;99.90
20915;DHT22;10617;52.032;5.298;2022-10-16T08:04:14;13.80;99.90
20915;DHT22;10617;52.032;5.298;2022-10-16T08:08:16;14.00;99.90
20915;DHT22;10617;52.032;5.298;2022-10-16T08:12:18;14.10;99.90
20915;DHT22;10617;52.032;5.298;2022-10-16T08:16:20;14.10;99.90
20915;DHT22;10617;52.032;5.298;2022-10-16T08:20:22;14.20;99.90
20915;DHT22;10617;52.032;5.298;2022-10-16T08:24:23;14.30;99.90
20915;DHT22;10617;52.032;5.298;2022-10-16T08:28:25;14.40;99.90
20915;DHT22;10617;52.032;5.298;2022-10-16T08:32:27;14.50;99.90
20915;DHT22;10617;52.032;5.298;2022-10-16T08:36:29;14.60;99.90
20915;DHT22;10617;52.032;5.298;2022-10-16T08:40:31;14.70;99.90
20915;DHT22;10617;52.032;5.298;2022-10-16T08:48:54;14.80;99.90
20915;DHT22;10617;52.032;5.298;2022-10-16T08:52:58;15.00;99.90
20915;DHT22;10617;52.032;5.298;2022-10-16T08:57:07;15.00;99.90
20915;DHT22;10617;52.032;5.298;2022-10-16T09:01:17;15.20;99.90
20915;DHT22;10617;52.032;5.298;2022-10-16T09:09:41;15.40;99.90
20915;DHT22;10617;52.032;5.298;2022-10-16T09:18:36;15.70;99.90
20915;DHT22;10617;52.032;5.298;2022-10-16T09:22:39;15.80;99.90
20915;DHT22;10617;52.032;5.298;2022-10-16T09:26:41;16.00;99.90
20915;DHT22;10617;52.032;5.298;2022-10-16T09:30:43;16.10;99.90
20915;DHT22;10617;52.032;5.298;2022-10-16T09:34:46;16.20;99.90
20915;DHT22;10617;52.032;5.298;2022-10-16T09:38:48;16.30;99.90
20915;DHT22;10617;52.032;5.298;2022-10-16T09:42:52;16.30;99.90
20915;DHT22;10617;52.032;5.298;2022-10-16T09:47:10;16.30;99.90
20915;DHT22;10617;52.032;5.298;2022-10-16T09:51:21;16.30;99.90
20915;DHT22;10617;52.032;5.298;2022-10-16T09:55:23;16.40;99.90
20915;DHT22;10617;52.032;5.298;2022-10-16T09:59:25;16.60;99.90
20915;DHT22;10617;52.032;5.298;2022-10-16T10:07:35;16.70;99.90
20915;DHT22;10617;52.032;5.298;2022-10-16T10:11:57;17.00;99.90
20915;DHT22;10617;52.032;5.298;2022-10-16T10:15:59;17.30;99.90
20915;DHT22;10617;52.032;5.298;2022-10-16T10:24:21;17.70;99.90
20915;DHT22;10617;52.032;5.298;2022-10-16T10:28:29;18.00;99.90
20915;DHT22;10617;52.032;5.298;2022-10-16T10:36:44;18.30;99.90
20915;DHT22;10617;52.032;5.298;2022-10-16T10:40:50;18.50;99.90
20915;DHT22;10617;52.032;5.298;2022-10-16T10:49:05;18.50;99.90
20915;DHT22;10617;52.032;5.298;2022-10-16T10:57:35;18.80;99.90
20915;DHT22;10617;52.032;5.298;2022-10-16T11:06:46;19.50;99.90
20915;DHT22;10617;52.032;5.298;2022-10-16T11:10:27;19.70;99.90
20915;DHT22;10617;52.032;5.298;2022-10-16T11:14:40;19.40;99.90
20915;DHT22;10617;52.032;5.298;2022-10-16T11:18:52;19.30;99.90
20915;DHT22;10617;52.032;5.298;2022-10-16T11:22:58;19.30;99.90
20915;DHT22;10617;52.032;5.298;2022-10-16T11:27:00;19.40;99.90
20915;DHT22;10617;52.032;5.298;2022-10-16T11:31:11;19.50;99.90
20915;DHT22;10617;52.032;5.298;2022-10-16T11:35:17;19.90;99.90
20915;DHT22;10617;52.032;5.298;2022-10-16T11:39:21;20.30;99.90
20915;DHT22;10617;52.032;5.298;2022-10-16T11:43:29;20.40;99.90
20915;DHT22;10617;52.032;5.298;2022-10-16T11:47:35;19.90;99.90
20915;DHT22;10617;52.032;5.298;2022-10-16T11:52:08;19.40;99.90
20915;DHT22;10617;52.032;5.298;2022-10-16T11:56:13;19.40;99.90
20915;DHT22;10617;52.032;5.298;2022-10-16T12:08:34;19.00;99.90
20915;DHT22;10617;52.032;5.298;2022-10-16T12:12:38;19.00;99.90
20915;DHT22;10617;52.032;5.298;2022-10-16T12:16:54;19.00;99.90
20915;DHT22;10617;52.032;5.298;2022-10-16T12:20:56;18.90;99.90
20915;DHT22;10617;52.032;5.298;2022-10-16T12:25:18;18.90;99.90
20915;DHT22;10617;52.032;5.298;2022-10-16T12:33:25;18.90;99.90
20915;DHT22;10617;52.032;5.298;2022-10-16T12:37:29;19.00;99.90
20915;DHT22;10617;52.032;5.298;2022-10-16T12:41:33;18.90;99.90
20915;DHT22;10617;52.032;5.298;2022-10-16T12:45:36;18.80;99.90
20915;DHT22;10617;52.032;5.298;2022-10-16T12:49:37;18.90;99.90
20915;DHT22;10617;52.032;5.298;2022-10-16T12:53:40;18.90;99.90
20915;DHT22;10617;52.032;5.298;2022-10-16T13:01:54;19.00;99.90
20915;DHT22;10617;52.032;5.298;2022-10-16T13:06:04;19.10;99.90
20915;DHT22;10617;52.032;5.298;2022-10-16T13:10:26;19.20;99.90
20915;DHT22;10617;52.032;5.298;2022-10-16T13:23:43;19.10;99.90
20915;DHT22;10617;52.032;5.298;2022-10-16T13:28:02;19.10;99.90
20915;DHT22;10617;52.032;5.298;2022-10-16T13:32:07;18.90;99.90
20915;DHT22;10617;52.032;5.298;2022-10-16T13:36:19;18.80;99.90
20915;DHT22;10617;52.032;5.298;2022-10-16T13:40:22;18.80;99.90
20915;DHT22;10617;52.032;5.298;2022-10-16T13:44:24;18.70;99.90
20915;DHT22;10617;52.032;5.298;2022-10-16T13:48:26;18.70;99.90
20915;DHT22;10617;52.032;5.298;2022-10-16T13:52:28;18.70;99.90
20915;DHT22;10617;52.032;5.298;2022-10-16T13:56:31;18.70;99.90
20915;DHT22;10617;52.032;5.298;2022-10-16T14:00:33;18.60;99.90
20915;DHT22;10617;52.032;5.298;2022-10-16T14:04:35;18.60;99.90
20915;DHT22;10617;52.032;5.298;2022-10-16T14:08:41;18.60;99.90
20915;DHT22;10617;52.032;5.298;2022-10-16T14:12:43;18.60;99.90
20915;DHT22;10617;52.032;5.298;2022-10-16T14:16:45;18.60;99.90
20915;DHT22;10617;52.032;5.298;2022-10-16T14:20:48;18.60;99.90
20915;DHT22;10617;52.032;5.298;2022-10-16T14:24:50;18.70;99.90
20915;DHT22;10617;52.032;5.298;2022-10-16T14:29:03;18.70;99.90
20915;DHT22;10617;52.032;5.298;2022-10-16T14:33:18;18.80;99.90
20915;DHT22;10617;52.032;5.298;2022-10-16T14:37:24;18.80;99.90
20915;DHT22;10617;52.032;5.298;2022-10-16T14:41:29;18.80;99.90
20915;DHT22;10617;52.032;5.298;2022-10-16T14:45:32;18.80;99.90
20915;DHT22;10617;52.032;5.298;2022-10-16T14:49:35;18.80;99.90
20915;DHT22;10617;52.032;5.298;2022-10-16T14:53:36;18.80;99.90
20915;DHT22;10617;52.032;5.298;2022-10-16T15:02:41;19.00;99.90
20915;DHT22;10617;52.032;5.298;2022-10-16T15:06:43;19.00;99.90
20915;DHT22;10617;52.032;5.298;2022-10-16T15:10:45;19.00;99.90
20915;DHT22;10617;52.032;5.298;2022-10-16T15:14:46;19.10;99.90
20915;DHT22;10617;52.032;5.298;2022-10-16T15:18:48;19.10;99.90
20915;DHT22;10617;52.032;5.298;2022-10-16T15:22:50;19.10;99.90
20915;DHT22;10617;52.032;5.298;2022-10-16T15:26:51;19.00;99.90
20915;DHT22;10617;52.032;5.298;2022-10-16T15:30:54;19.00;99.90
20915;DHT22;10617;52.032;5.298;2022-10-16T15:34:56;19.00;99.90
20915;DHT22;10617;52.032;5.298;2022-10-16T15:38:57;18.90;99.90
20915;DHT22;10617;52.032;5.298;2022-10-16T15:42:59;18.80;99.90
20915;DHT22;10617;52.032;5.298;2022-10-16T15:47:01;18.70;99.90
20915;DHT22;10617;52.032;5.298;2022-10-16T15:51:06;18.60;99.90
20915;DHT22;10617;52.032;5.298;2022-10-16T15:55:08;18.40;99.90
20915;DHT22;10617;52.032;5.298;2022-10-16T15:59:11;18.30;99.90
20915;DHT22;10617;52.032;5.298;2022-10-16T16:03:12;18.20;99.90
20915;DHT22;10617;52.032;5.298;2022-10-16T16:07:14;18.00;99.90
20915;DHT22;10617;52.032;5.298;2022-10-16T16:11:17;18.00;99.90
20915;DHT22;10617;52.032;5.298;2022-10-16T16:15:20;17.90;99.90
20915;DHT22;10617;52.032;5.298;2022-10-16T16:19:22;17.80;99.90
20915;DHT22;10617;52.032;5.298;2022-10-16T16:23:24;17.80;99.90
20915;DHT22;10617;52.032;5.298;2022-10-16T16:27:25;17.70;99.90
20915;DHT22;10617;52.032;5.298;2022-10-16T16:31:28;17.60;99.90
20915;DHT22;10617;52.032;5.298;2022-10-16T16:35:29;17.50;99.90
20915;DHT22;10617;52.032;5.298;2022-10-16T16:39:31;17.50;99.90
20915;DHT22;10617;52.032;5.298;2022-10-16T16:43:33;17.40;99.90
20915;DHT22;10617;52.032;5.298;2022-10-16T16:47:34;17.30;99.90
20915;DHT22;10617;52.032;5.298;2022-10-16T16:51:37;17.30;99.90
20915;DHT22;10617;52.032;5.298;2022-10-16T16:55:40;17.30;99.90
20915;DHT22;10617;52.032;5.298;2022-10-16T16:59:42;17.20;99.90
20915;DHT22;10617;52.032;5.298;2022-10-16T17:03:44;17.20;99.90
20915;DHT22;10617;52.032;5.298;2022-10-16T17:07:46;17.10;99.90
20915;DHT22;10617;52.032;5.298;2022-10-16T17:11:47;17.10;99.90
20915;DHT22;10617;52.032;5.298;2022-10-16T17:15:49;17.00;99.90
20915;DHT22;10617;52.032;5.298;2022-10-16T17:19:51;16.90;99.90
20915;DHT22;10617;52.032;5.298;2022-10-16T17:23:53;16.80;99.90
20915;DHT22;10617;52.032;5.298;2022-10-16T17:27:55;16.70;99.90
20915;DHT22;10617;52.032;5.298;2022-10-16T17:31:56;16.70;99.90
20915;DHT22;10617;52.032;5.298;2022-10-16T17:35:59;16.70;99.90
20915;DHT22;10617;52.032;5.298;2022-10-16T17:40:03;16.70;99.90
20915;DHT22;10617;52.032;5.298;2022-10-16T17:44:05;16.70;99.90
20915;DHT22;10617;52.032;5.298;2022-10-16T17:48:07;16.60;99.90
20915;DHT22;10617;52.032;5.298;2022-10-16T17:52:08;16.60;99.90
20915;DHT22;10617;52.032;5.298;2022-10-16T17:56:11;16.60;99.90
20915;DHT22;10617;52.032;5.298;2022-10-16T18:00:13;16.50;99.90
20915;DHT22;10617;52.032;5.298;2022-10-16T18:04:15;16.40;99.90
20915;DHT22;10617;52.032;5.298;2022-10-16T18:08:18;16.40;99.90
20915;DHT22;10617;52.032;5.298;2022-10-16T18:12:19;16.40;99.90
20915;DHT22;10617;52.032;5.298;2022-10-16T18:16:21;16.30;99.90
20915;DHT22;10617;52.032;5.298;2022-10-16T18:20:23;16.30;99.90
20915;DHT22;10617;52.032;5.298;2022-10-16T18:24:25;16.30;99.90
20915;DHT22;10617;52.032;5.298;2022-10-16T18:28:26;16.30;99.90
20915;DHT22;10617;52.032;5.298;2022-10-16T18:32:28;16.30;99.90
20915;DHT22;10617;52.032;5.298;2022-10-16T18:36:32;16.40;99.90
20915;DHT22;10617;52.032;5.298;2022-10-16T18:40:34;16.40;99.90
20915;DHT22;10617;52.032;5.298;2022-10-16T18:44:36;16.40;99.90
20915;DHT22;10617;52.032;5.298;2022-10-16T18:58:45;16.30;99.90
20915;DHT22;10617;52.032;5.298;2022-10-16T19:02:48;16.30;99.90
20915;DHT22;10617;52.032;5.298;2022-10-16T19:06:51;16.20;99.90
20915;DHT22;10617;52.032;5.298;2022-10-16T19:10:53;16.20;99.90
20915;DHT22;10617;52.032;5.298;2022-10-16T19:14:54;16.10;99.90
20915;DHT22;10617;52.032;5.298;2022-10-16T19:18:57;16.10;99.90
20915;DHT22;10617;52.032;5.298;2022-10-16T19:22:59;16.10;99.90
20915;DHT22;10617;52.032;5.298;2022-10-16T19:27:01;16.10;99.90
20915;DHT22;10617;52.032;5.298;2022-10-16T19:31:03;16.20;99.90
20915;DHT22;10617;52.032;5.298;2022-10-16T19:35:06;16.20;99.90
20915;DHT22;10617;52.032;5.298;2022-10-16T19:39:13;16.20;99.90
20915;DHT22;10617;52.032;5.298;2022-10-16T19:43:15;16.20;99.90
20915;DHT22;10617;52.032;5.298;2022-10-16T19:47:17;16.20;99.90
20915;DHT22;10617;52.032;5.298;2022-10-16T19:51:21;16.20;99.90
20915;DHT22;10617;52.032;5.298;2022-10-16T19:55:22;16.20;99.90
20915;DHT22;10617;52.032;5.298;2022-10-16T19:59:24;16.20;99.90
20915;DHT22;10617;52.032;5.298;2022-10-16T20:03:26;16.20;99.90
20915;DHT22;10617;52.032;5.298;2022-10-16T20:07:28;16.20;99.90
20915;DHT22;10617;52.032;5.298;2022-10-16T20:11:33;16.20;99.90
20915;DHT22;10617;52.032;5.298;2022-10-16T20:15:35;16.10;99.90
20915;DHT22;10617;52.032;5.298;2022-10-16T20:19:38;16.10;99.90
20915;DHT22;10617;52.032;5.298;2022-10-16T20:23:40;16.10;99.90
20915;DHT22;10617;52.032;5.298;2022-10-16T20:32:49;16.00;99.90
20915;DHT22;10617;52.032;5.298;2022-10-16T20:36:50;15.90;99.90
20915;DHT22;10617;52.032;5.298;2022-10-16T20:40:52;15.90;99.90
20915;DHT22;10617;52.032;5.298;2022-10-16T20:44:53;15.90;99.90
20915;DHT22;10617;52.032;5.298;2022-10-16T20:48:55;15.90;99.90
20915;DHT22;10617;52.032;5.298;2022-10-16T20:53:06;15.90;99.90
20915;DHT22;10617;52.032;5.298;2022-10-16T20:57:08;15.90;99.90
20915;DHT22;10617;52.032;5.298;2022-10-16T21:01:11;16.00;99.90
20915;DHT22;10617;52.032;5.298;2022-10-16T21:05:13;16.00;99.90
20915;DHT22;10617;52.032;5.298;2022-10-16T21:09:15;16.00;99.90
20915;DHT22;10617;52.032;5.298;2022-10-16T21:13:16;16.00;99.90
20915;DHT22;10617;52.032;5.298;2022-10-16T21:17:18;16.00;99.90
20915;DHT22;10617;52.032;5.298;2022-10-16T21:21:21;16.00;99.90
20915;DHT22;10617;52.032;5.298;2022-10-16T21:25:23;16.00;99.90
20915;DHT22;10617;52.032;5.298;2022-10-16T21:29:25;16.00;99.90
20915;DHT22;10617;52.032;5.298;2022-10-16T21:33:26;16.00;99.90
20915;DHT22;10617;52.032;5.298;2022-10-16T21:37:29;16.00;99.90
20915;DHT22;10617;52.032;5.298;2022-10-16T21:41:30;16.00;99.90
20915;DHT22;10617;52.032;5.298;2022-10-16T21:45:32;15.90;99.90
20915;DHT22;10617;52.032;5.298;2022-10-16T21:49:34;15.90;99.90
20915;DHT22;10617;52.032;5.298;2022-10-16T21:53:36;15.80;99.90
20915;DHT22;10617;52.032;5.298;2022-10-16T21:57:38;15.90;99.90
20915;DHT22;10617;52.032;5.298;2022-10-16T22:01:39;15.90;99.90
20915;DHT22;10617;52.032;5.298;2022-10-16T22:05:41;15.80;99.90
20915;DHT22;10617;52.032;5.298;2022-10-16T22:09:43;15.80;99.90
20915;DHT22;10617;52.032;5.298;2022-10-16T22:13:44;15.70;99.90
20915;DHT22;10617;52.032;5.298;2022-10-16T22:17:46;15.70;99.90
20915;DHT22;10617;52.032;5.298;2022-10-16T22:21:48;15.60;99.90
20915;DHT22;10617;52.032;5.298;2022-10-16T22:25:57;15.70;99.90
20915;DHT22;10617;52.032;5.298;2022-10-16T22:29:58;15.70;99.90
20915;DHT22;10617;52.032;5.298;2022-10-16T22:34:01;15.60;99.90
20915;DHT22;10617;52.032;5.298;2022-10-16T22:38:03;15.70;99.90
20915;DHT22;10617;52.032;5.298;2022-10-16T22:42:05;15.70;99.90
20915;DHT22;10617;52.032;5.298;2022-10-16T22:46:07;15.70;99.90
20915;DHT22;10617;52.032;5.298;2022-10-16T22:50:09;15.70;99.90
20915;DHT22;10617;52.032;5.298;2022-10-16T22:54:11;15.70;99.90
20915;DHT22;10617;52.032;5.298;2022-10-16T22:58:12;15.70;99.90
20915;DHT22;10617;52.032;5.298;2022-10-16T23:02:14;15.80;99.90
20915;DHT22;10617;52.032;5.298;2022-10-16T23:06:16;15.70;99.90
20915;DHT22;10617;52.032;5.298;2022-10-16T23:10:17;15.70;99.90
20915;DHT22;10617;52.032;5.298;2022-10-16T23:14:20;15.70;99.90
20915;DHT22;10617;52.032;5.298;2022-10-16T23:18:21;15.70;99.90
20915;DHT22;10617;52.032;5.298;2022-10-16T23:22:23;15.70;99.90
20915;DHT22;10617;52.032;5.298;2022-10-16T23:26:25;15.70;99.90
20915;DHT22;10617;52.032;5.298;2022-10-16T23:30:27;15.70;99.90
20915;DHT22;10617;52.032;5.298;2022-10-16T23:34:28;15.70;99.90
20915;DHT22;10617;52.032;5.298;2022-10-16T23:38:30;15.70;99.90
20915;DHT22;10617;52.032;5.298;2022-10-16T23:42:31;15.70;99.90
20915;DHT22;10617;52.032;5.298;2022-10-16T23:46:33;15.60;99.90
20915;DHT22;10617;52.032;5.298;2022-10-16T23:50:35;15.60;99.90
20915;DHT22;10617;52.032;5.298;2022-10-16T23:54:36;15.60;99.90
20915;DHT22;10617;52.032;5.298;2022-10-16T23:58:38;15.50;99.90
